Time;durP1;ratioP1;P1;durP2;ratioP2;P2;SDS_P1;SDS_P2;PMS_P1;PMS_P2;Temp;Humidity;BMP_temperature;BMP_pressure;BME280_temperature;BME280_humidity;BME280_pressure;Samples;Min_cycle;Max_cycle;Signal;HPM_P1;HPM_P2
2022/11/01 00:02:12;;;;;;;18.48;12.23;;;12.80;99.90;;;;;;5028270;28;20049;-67
2022/11/01 00:04:38;;;;;;;21.05;11.45;;;12.80;99.90;;;;;;5007365;28;20493;-67
2022/11/01 00:07:05;;;;;;;16.40;9.63;;;12.80;99.90;;;;;;5029107;28;20045;-67
2022/11/01 00:09:30;;;;;;;20.17;10.85;;;12.80;99.90;;;;;;5011097;28;20042;-67
2022/11/01 00:11:57;;;;;;;15.30;9.88;;;12.80;99.90;;;;;;5029217;28;20069;-67
2022/11/01 00:14:23;;;;;;;14.75;9.70;;;12.90;99.90;;;;;;5032010;28;20050;-67
2022/11/01 00:16:48;;;;;;;14.85;9.30;;;12.80;99.90;;;;;;5031285;28;20049;-67
2022/11/01 00:19:14;;;;;;;15.65;8.57;;;12.90;99.90;;;;;;5031924;28;20120;-67
2022/11/01 00:21:40;;;;;;;14.00;8.77;;;12.90;99.90;;;;;;5033260;28;20087;-67
2022/11/01 00:24:06;;;;;;;17.50;8.05;;;13.00;99.90;;;;;;5030987;28;20029;-67
2022/11/01 00:26:32;;;;;;;14.77;9.05;;;13.10;99.90;;;;;;5014842;28;20034;-67
2022/11/01 00:28:57;;;;;;;12.70;7.35;;;13.10;99.90;;;;;;5031078;28;20069;-67
2022/11/01 00:31:23;;;;;;;17.50;7.93;;;13.20;99.90;;;;;;5033136;28;20091;-67
2022/11/01 00:33:49;;;;;;;11.27;6.97;;;13.20;99.90;;;;;;5031216;28;20048;-67
2022/11/01 00:36:15;;;;;;;14.40;6.55;;;13.20;99.90;;;;;;4998514;28;20052;-67
2022/11/01 00:38:40;;;;;;;11.32;6.80;;;13.40;99.90;;;;;;5014381;28;20049;-67
2022/11/01 00:41:06;;;;;;;12.43;6.82;;;13.40;99.90;;;;;;5014321;28;20084;-67
2022/11/01 00:43:33;;;;;;;12.38;6.82;;;13.60;99.90;;;;;;5013268;28;20068;-67
2022/11/01 00:46:00;;;;;;;15.15;6.97;;;13.60;99.90;;;;;;5014887;28;20053;-67
2022/11/01 00:48:26;;;;;;;11.10;6.70;;;13.70;99.90;;;;;;5010795;28;20111;-67
2022/11/01 00:50:52;;;;;;;12.32;6.80;;;13.70;99.90;;;;;;5012334;28;20077;-67
2022/11/01 00:53:18;;;;;;;12.85;6.93;;;13.80;99.90;;;;;;5032668;28;20071;-67
2022/11/01 00:55:44;;;;;;;18.88;7.78;;;13.80;99.90;;;;;;5032111;28;20086;-67
2022/11/01 00:58:10;;;;;;;12.18;6.82;;;13.90;99.90;;;;;;5013112;28;20041;-67
2022/11/01 01:00:36;;;;;;;16.30;7.32;;;13.90;99.90;;;;;;5028052;28;20053;-67
2022/11/01 01:03:02;;;;;;;16.52;6.55;;;14.00;99.90;;;;;;5010750;28;20057;-67
2022/11/01 01:05:28;;;;;;;10.63;6.57;;;14.10;99.90;;;;;;4995617;28;20073;-67
2022/11/01 01:07:54;;;;;;;12.27;6.55;;;14.10;99.90;;;;;;5030483;28;20393;-67
2022/11/01 01:10:20;;;;;;;11.90;6.78;;;14.20;99.90;;;;;;5031845;28;20400;-67
2022/11/01 01:12:45;;;;;;;17.10;6.50;;;14.20;99.90;;;;;;5013129;28;20128;-67
2022/11/01 01:15:13;;;;;;;13.98;6.38;;;14.30;99.90;;;;;;5012813;28;20064;-68
2022/11/01 01:17:38;;;;;;;15.38;6.72;;;14.30;99.90;;;;;;5013481;28;20072;-67
2022/11/01 01:20:06;;;;;;;12.43;6.90;;;14.20;99.90;;;;;;5013898;28;20481;-67
2022/11/01 01:22:32;;;;;;;11.85;6.25;;;14.30;99.90;;;;;;5013525;28;20053;-67
2022/11/01 01:24:58;;;;;;;12.93;6.30;;;14.20;99.90;;;;;;5014056;28;20503;-68
2022/11/01 01:27:24;;;;;;;10.30;6.53;;;14.40;99.90;;;;;;5013350;28;20037;-67
2022/11/01 01:29:50;;;;;;;13.68;6.25;;;14.30;99.90;;;;;;5012017;28;20037;-68
2022/11/01 01:32:19;;;;;;;11.65;6.68;;;14.40;99.90;;;;;;5031837;28;20038;-68
2022/11/01 01:34:45;;;;;;;10.48;6.20;;;14.40;99.90;;;;;;5026687;28;20041;-67
2022/11/01 01:37:11;;;;;;;11.43;6.18;;;14.40;99.90;;;;;;5016739;28;20051;-68
2022/11/01 01:39:37;;;;;;;10.32;5.70;;;14.30;99.90;;;;;;5030434;28;20104;-67
2022/11/01 01:42:30;;;;;;;9.95;5.60;;;14.30;99.90;;;;;;5030517;28;20037;-67
2022/11/01 01:44:55;;;;;;;10.32;5.28;;;14.30;99.90;;;;;;5009164;28;20045;-67
2022/11/01 01:47:34;;;;;;;12.88;5.50;;;14.30;99.90;;;;;;5030980;28;20095;-67
2022/11/01 01:49:59;;;;;;;9.63;5.63;;;14.30;99.90;;;;;;5010134;28;20377;-67
2022/11/01 01:52:28;;;;;;;9.65;5.75;;;14.30;99.90;;;;;;5031501;28;20044;-68
2022/11/01 01:54:54;;;;;;;11.52;5.85;;;14.30;99.90;;;;;;5013484;28;20493;-68
2022/11/01 01:57:19;;;;;;;10.43;5.90;;;14.30;99.90;;;;;;5011909;28;20052;-67
2022/11/01 01:59:46;;;;;;;9.88;5.68;;;14.30;99.90;;;;;;5030520;28;20037;-67
2022/11/01 02:02:12;;;;;;;11.25;5.38;;;14.30;99.90;;;;;;5013001;28;20041;-67
2022/11/01 02:04:43;;;;;;;11.15;5.72;;;14.30;99.90;;;;;;5011179;28;20053;-67
2022/11/01 02:07:09;;;;;;;12.43;5.30;;;14.40;99.90;;;;;;5010053;28;20041;-67
2022/11/01 02:09:35;;;;;;;13.77;5.90;;;14.40;99.90;;;;;;5010592;28;20037;-67
2022/11/01 02:12:02;;;;;;;11.70;5.97;;;14.40;99.90;;;;;;5004266;28;20033;-68
2022/11/01 02:14:28;;;;;;;11.25;5.35;;;14.40;99.90;;;;;;5030518;28;20044;-67
2022/11/01 02:17:11;;;;;;;12.27;5.75;;;14.40;99.90;;;;;;5029802;28;20041;-67
2022/11/01 02:20:04;;;;;;;12.90;5.65;;;14.40;99.90;;;;;;5028251;28;20042;-67
2022/11/01 02:22:49;;;;;;;11.80;5.45;;;14.40;99.90;;;;;;5012398;28;20041;-68
2022/11/01 02:25:29;;;;;;;12.00;4.82;;;14.50;99.90;;;;;;5010937;28;20045;-67
2022/11/01 02:28:21;;;;;;;9.75;5.50;;;14.40;99.90;;;;;;5029105;28;20099;-67
2022/11/01 02:31:19;;;;;;;12.85;5.50;;;14.50;99.90;;;;;;4984557;28;20058;-67
2022/11/01 02:33:53;;;;;;;13.15;5.45;;;14.50;99.90;;;;;;5028166;28;20038;-67
2022/11/01 02:36:21;;;;;;;12.13;6.00;;;14.40;99.90;;;;;;5011014;28;20092;-67
2022/11/01 02:38:56;;;;;;;13.93;6.15;;;14.50;99.90;;;;;;4995863;28;20052;-67
2022/11/01 02:41:48;;;;;;;10.15;5.35;;;14.50;99.90;;;;;;5029138;28;20044;-67
2022/11/01 02:44:27;;;;;;;10.07;5.55;;;14.40;99.90;;;;;;5023148;28;20361;-67
2022/11/01 02:47:00;;;;;;;11.85;5.07;;;14.40;99.90;;;;;;5011174;28;20037;-67
2022/11/01 02:49:30;;;;;;;11.52;5.85;;;14.40;99.90;;;;;;5024937;28;20152;-67
2022/11/01 02:51:58;;;;;;;13.40;5.80;;;14.40;99.90;;;;;;5012405;28;20072;-67
2022/11/01 02:54:32;;;;;;;9.07;5.55;;;14.40;99.90;;;;;;5027411;28;20051;-67
2022/11/01 02:57:05;;;;;;;11.93;5.00;;;14.50;99.90;;;;;;4994386;28;20049;-67
2022/11/01 02:59:42;;;;;;;12.60;5.70;;;14.50;99.90;;;;;;5011536;28;20057;-67
2022/11/01 03:02:38;;;;;;;12.40;5.25;;;14.50;99.90;;;;;;5012345;28;20045;-67
2022/11/01 03:05:25;;;;;;;13.98;5.25;;;14.50;99.90;;;;;;5029136;28;20119;-67
2022/11/01 03:07:57;;;;;;;10.70;5.03;;;14.60;99.90;;;;;;5028328;28;20497;-67
2022/11/01 03:10:33;;;;;;;11.23;5.63;;;14.60;99.90;;;;;;5028470;28;20501;-67
2022/11/01 03:13:12;;;;;;;9.27;5.32;;;14.70;99.90;;;;;;5008379;28;20050;-67
2022/11/01 03:15:46;;;;;;;11.90;5.35;;;14.70;99.90;;;;;;5006964;28;20104;-67
2022/11/01 03:18:34;;;;;;;9.95;5.40;;;14.80;99.90;;;;;;5005613;28;20054;-67
2022/11/01 03:21:15;;;;;;;9.95;5.35;;;14.80;99.90;;;;;;5005772;28;20452;-67
2022/11/01 03:23:49;;;;;;;10.95;4.90;;;14.90;99.90;;;;;;5008629;28;20060;-67
2022/11/01 03:26:20;;;;;;;10.35;5.13;;;14.90;99.90;;;;;;5003661;28;20464;-67
2022/11/01 03:28:50;;;;;;;11.88;5.07;;;15.00;99.90;;;;;;5006182;28;20084;-67
2022/11/01 03:31:24;;;;;;;10.00;5.10;;;15.10;99.90;;;;;;5008776;28;20069;-67
2022/11/01 03:33:58;;;;;;;12.90;5.07;;;15.10;99.90;;;;;;5006448;28;20156;-67
2022/11/01 03:36:29;;;;;;;10.10;4.82;;;15.10;99.90;;;;;;5003637;28;20053;-67
2022/11/01 03:39:00;;;;;;;8.95;4.68;;;15.00;99.90;;;;;;5008482;28;20124;-67
2022/11/01 03:41:27;;;;;;;9.45;4.90;;;15.10;99.90;;;;;;5010213;28;20046;-67
2022/11/01 03:43:54;;;;;;;14.07;6.43;;;15.00;99.90;;;;;;5009107;28;20049;-67
2022/11/01 03:46:20;;;;;;;12.55;5.18;;;15.00;99.90;;;;;;5006622;28;20057;-68
2022/11/01 03:48:46;;;;;;;9.65;5.53;;;15.00;99.90;;;;;;4988697;28;20041;-67
2022/11/01 03:51:11;;;;;;;10.07;5.32;;;15.00;99.90;;;;;;5008016;28;20036;-67
2022/11/01 03:53:37;;;;;;;13.43;5.15;;;15.00;99.90;;;;;;5008843;28;20084;-67
2022/11/01 03:56:03;;;;;;;12.65;4.80;;;14.90;99.90;;;;;;5009731;28;20096;-67
2022/11/01 03:58:40;;;;;;;11.40;5.00;;;14.90;99.90;;;;;;5006754;28;20104;-67
2022/11/01 04:01:08;;;;;;;9.73;5.00;;;14.90;99.90;;;;;;5008403;28;20553;-67
2022/11/01 04:03:33;;;;;;;12.93;4.93;;;14.90;99.90;;;;;;5008430;28;20049;-67
2022/11/01 04:05:59;;;;;;;9.70;4.95;;;14.90;99.90;;;;;;5008987;28;20042;-67
2022/11/01 04:08:25;;;;;;;9.15;4.25;;;14.90;99.90;;;;;;5007016;28;20091;-67
2022/11/01 04:10:50;;;;;;;11.15;4.25;;;15.00;99.90;;;;;;5005641;28;20048;-67
2022/11/01 04:13:16;;;;;;;11.07;4.50;;;15.00;99.90;;;;;;5017946;28;20050;-67
2022/11/01 04:21:16;;;;;;;10.55;4.20;;;15.10;99.90;;;;;;5027443;28;20073;-67
2022/11/01 04:23:43;;;;;;;8.80;4.00;;;15.10;99.90;;;;;;5027392;28;20046;-67
2022/11/01 04:26:17;;;;;;;9.23;4.35;;;15.10;99.90;;;;;;5028982;28;20121;-67
2022/11/01 04:28:58;;;;;;;10.18;4.15;;;15.20;99.90;;;;;;5027706;28;20098;-67
2022/11/01 04:31:28;;;;;;;9.40;4.05;;;15.20;99.90;;;;;;5022552;28;20149;-67
2022/11/01 04:33:54;;;;;;;8.25;4.32;;;15.20;99.90;;;;;;5024770;28;20037;-67
2022/11/01 04:36:20;;;;;;;7.97;4.20;;;15.20;99.90;;;;;;5029310;28;20040;-67
2022/11/01 04:38:51;;;;;;;10.60;4.10;;;15.20;99.90;;;;;;5009504;28;20045;-68
2022/11/01 04:41:21;;;;;;;8.30;4.22;;;15.30;99.90;;;;;;5006872;28;20120;-67
2022/11/01 04:43:48;;;;;;;7.53;4.72;;;15.30;99.90;;;;;;5027260;28;20076;-67
2022/11/01 04:46:14;;;;;;;9.60;4.40;;;15.20;99.90;;;;;;4994563;28;20444;-67
2022/11/01 04:48:40;;;;;;;10.20;4.57;;;15.30;99.90;;;;;;5027959;28;20033;-68
2022/11/01 04:51:07;;;;;;;8.50;4.10;;;15.30;99.90;;;;;;5028244;28;20044;-68
2022/11/01 04:53:33;;;;;;;9.73;4.68;;;15.20;99.90;;;;;;5027809;28;20038;-67
2022/11/01 04:56:01;;;;;;;9.35;3.95;;;15.30;99.90;;;;;;5028502;28;20099;-67
2022/11/01 04:58:27;;;;;;;9.52;4.35;;;15.20;99.90;;;;;;5027636;28;20056;-67
2022/11/01 05:00:52;;;;;;;10.27;4.13;;;15.20;99.90;;;;;;5031237;28;20447;-67
2022/11/01 05:03:18;;;;;;;9.15;3.85;;;15.20;99.90;;;;;;5031416;28;20045;-67
2022/11/01 05:05:44;;;;;;;12.90;4.90;;;15.20;99.90;;;;;;5031269;28;20080;-67
2022/11/01 05:08:11;;;;;;;7.13;3.78;;;15.20;99.90;;;;;;5031384;28;20129;-67
2022/11/01 05:10:40;;;;;;;10.30;4.30;;;15.20;99.90;;;;;;5012771;28;20405;-67
2022/11/01 05:13:07;;;;;;;8.27;3.72;;;15.10;99.90;;;;;;5006984;28;20065;-67
2022/11/01 05:15:33;;;;;;;12.63;4.75;;;15.00;99.90;;;;;;5012323;28;20118;-67
2022/11/01 05:18:00;;;;;;;10.48;4.28;;;15.10;99.90;;;;;;5011365;28;20034;-67
2022/11/01 05:20:26;;;;;;;7.80;3.90;;;15.10;99.90;;;;;;5009785;28;20058;-67
2022/11/01 05:22:57;;;;;;;8.50;3.80;;;15.10;99.90;;;;;;5010459;28;20266;-67
2022/11/01 05:25:23;;;;;;;7.93;3.80;;;15.10;99.90;;;;;;5012460;28;20038;-67
2022/11/01 05:27:49;;;;;;;9.73;4.07;;;15.10;99.90;;;;;;5009129;28;20485;-67
2022/11/01 05:30:15;;;;;;;7.00;3.72;;;15.20;99.90;;;;;;5012209;28;20054;-67
2022/11/01 05:32:40;;;;;;;8.07;3.88;;;15.20;99.90;;;;;;5007873;28;20034;-68
2022/11/01 05:35:06;;;;;;;10.68;3.95;;;15.30;99.90;;;;;;5008719;28;20045;-68
2022/11/01 05:37:34;;;;;;;8.15;3.80;;;15.30;99.90;;;;;;5009506;28;20061;-67
2022/11/01 05:40:00;;;;;;;7.50;4.38;;;15.30;99.90;;;;;;5011312;28;20385;-67
2022/11/01 05:42:26;;;;;;;10.48;3.50;;;15.30;99.90;;;;;;5010342;28;20046;-67
2022/11/01 05:44:52;;;;;;;6.70;3.47;;;15.40;99.90;;;;;;5012213;28;20052;-67
2022/11/01 05:47:17;;;;;;;7.35;2.53;;;15.40;99.90;;;;;;5001674;28;20046;-67
2022/11/01 05:49:43;;;;;;;5.60;1.92;;;15.30;99.90;;;;;;5003374;28;20045;-68
2022/11/01 05:52:09;;;;;;;6.30;2.03;;;15.30;99.90;;;;;;5009870;28;20041;-67
2022/11/01 05:54:35;;;;;;;4.05;1.48;;;15.20;99.90;;;;;;5009325;28;20034;-67
2022/11/01 05:57:00;;;;;;;5.50;1.60;;;15.10;99.90;;;;;;5009289;28;20517;-67
2022/11/01 05:59:26;;;;;;;5.70;1.48;;;15.00;99.90;;;;;;5009504;28;20050;-67
2022/11/01 06:01:51;;;;;;;5.28;1.02;;;14.80;99.90;;;;;;5009707;28;20045;-67
2022/11/01 06:04:17;;;;;;;2.08;0.70;;;14.80;99.90;;;;;;5009937;28;20095;-67
2022/11/01 06:06:43;;;;;;;7.35;1.20;;;14.60;99.90;;;;;;5008395;28;20034;-67
2022/11/01 06:09:09;;;;;;;4.38;0.80;;;14.60;99.90;;;;;;5010948;28;20041;-67
2022/11/01 06:11:34;;;;;;;3.30;0.50;;;14.50;99.90;;;;;;5010519;28;20030;-68
2022/11/01 06:14:00;;;;;;;3.65;0.38;;;14.50;99.90;;;;;;5023091;28;20049;-67
2022/11/01 06:16:26;;;;;;;4.82;1.10;;;14.50;99.90;;;;;;5028830;28;21085;-67
2022/11/01 06:18:52;;;;;;;3.10;0.88;;;14.40;99.90;;;;;;5010859;28;20056;-67
2022/11/01 06:21:20;;;;;;;3.60;0.98;;;14.40;99.90;;;;;;5011077;28;20148;-67
2022/11/01 06:23:49;;;;;;;3.58;0.70;;;14.30;99.90;;;;;;5011931;28;20045;-67
2022/11/01 06:26:16;;;;;;;2.00;0.40;;;14.20;99.90;;;;;;5029510;28;20041;-67
2022/11/01 06:28:41;;;;;;;4.00;0.65;;;14.20;99.90;;;;;;5028498;28;20060;-68
2022/11/01 06:31:07;;;;;;;3.10;0.65;;;14.10;99.90;;;;;;5030843;28;20481;-67
2022/11/01 06:33:33;;;;;;;3.58;0.73;;;14.10;99.90;;;;;;5025760;28;20038;-67
2022/11/01 06:36:00;;;;;;;2.00;0.73;;;14.00;99.90;;;;;;5029789;28;20509;-67
2022/11/01 06:38:26;;;;;;;5.75;0.60;;;13.90;99.90;;;;;;5023254;28;20128;-67
2022/11/01 06:40:52;;;;;;;5.95;0.60;;;13.80;99.90;;;;;;4987335;28;20485;-67
2022/11/01 06:43:17;;;;;;;3.85;0.60;;;13.80;99.90;;;;;;4999545;28;20544;-67
2022/11/01 06:45:43;;;;;;;4.50;1.20;;;13.70;99.90;;;;;;5026777;28;20038;-66
2022/11/01 06:48:09;;;;;;;2.83;0.70;;;13.60;99.90;;;;;;5026130;28;20083;-67
2022/11/01 06:50:35;;;;;;;2.63;0.60;;;13.60;99.90;;;;;;5004382;28;20536;-67
2022/11/01 06:53:00;;;;;;;7.05;0.90;;;13.50;99.90;;;;;;5008470;28;20036;-67
2022/11/01 06:55:27;;;;;;;3.53;0.70;;;13.40;99.90;;;;;;5022667;28;20420;-67
2022/11/01 06:57:54;;;;;;;5.07;0.80;;;13.40;99.90;;;;;;5023896;28;20044;-67
2022/11/01 07:00:21;;;;;;;7.95;0.80;;;13.40;99.90;;;;;;5023742;28;20034;-67
2022/11/01 07:02:46;;;;;;;4.53;0.82;;;13.40;99.90;;;;;;5024708;28;20108;-67
2022/11/01 07:05:12;;;;;;;7.45;0.80;;;13.40;99.90;;;;;;5005859;28;20039;-67
2022/11/01 07:07:38;;;;;;;5.53;0.80;;;13.40;99.90;;;;;;5026426;28;20444;-67
2022/11/01 07:10:04;;;;;;;6.85;0.77;;;13.40;99.90;;;;;;5024385;28;20042;-67
2022/11/01 07:12:30;;;;;;;9.05;1.13;;;13.40;99.90;;;;;;5007713;28;20076;-67
2022/11/01 07:14:55;;;;;;;5.55;1.00;;;13.40;99.90;;;;;;5023652;28;20080;-67
2022/11/01 07:17:21;;;;;;;4.68;0.80;;;13.40;99.90;;;;;;5029085;28;20055;-67
2022/11/01 07:19:47;;;;;;;8.60;1.15;;;13.40;99.90;;;;;;5026060;28;20068;-67
2022/11/01 07:22:13;;;;;;;3.83;0.70;;;13.40;99.90;;;;;;5027028;28;20891;-67
2022/11/01 07:24:39;;;;;;;6.18;0.85;;;13.50;99.90;;;;;;5028426;28;20041;-67
2022/11/01 07:27:04;;;;;;;4.28;0.52;;;13.60;99.90;;;;;;5010808;28;20038;-67
2022/11/01 07:29:30;;;;;;;5.65;0.70;;;14.10;99.90;;;;;;5027958;28;20542;-67
2022/11/01 07:31:56;;;;;;;2.63;0.50;;;14.80;99.90;;;;;;5026512;28;20034;-67
2022/11/01 07:34:22;;;;;;;5.93;0.82;;;15.50;99.90;;;;;;5029002;28;20049;-67
2022/11/01 07:36:53;;;;;;;5.50;0.82;;;15.90;99.90;;;;;;5009394;28;20041;-66
2022/11/01 07:39:19;;;;;;;4.32;0.88;;;16.20;99.90;;;;;;5011628;28;20500;-67
2022/11/01 07:41:45;;;;;;;4.03;0.77;;;16.20;99.90;;;;;;5026156;28;20128;-67
2022/11/01 07:44:10;;;;;;;6.93;0.88;;;16.00;99.90;;;;;;5008105;28;20041;-67
2022/11/01 07:46:36;;;;;;;3.55;0.60;;;15.90;99.90;;;;;;5008007;28;20050;-67
2022/11/01 07:49:02;;;;;;;3.83;0.60;;;15.60;99.90;;;;;;5028524;28;20049;-67
2022/11/01 07:51:28;;;;;;;5.32;0.95;;;15.80;99.90;;;;;;5009014;28;20048;-67
2022/11/01 07:53:53;;;;;;;4.10;0.57;;;16.40;99.90;;;;;;5010476;28;20535;-67
2022/11/01 07:56:20;;;;;;;5.75;0.82;;;16.90;99.90;;;;;;5011880;28;20116;-67
2022/11/01 07:58:46;;;;;;;5.32;0.68;;;17.50;99.90;;;;;;5025212;28;20038;-67
2022/11/01 08:01:12;;;;;;;5.60;0.73;;;17.90;99.90;;;;;;5026850;28;20488;-67
2022/11/01 08:03:37;;;;;;;8.82;1.23;;;18.30;99.90;;;;;;5009636;28;20080;-67
2022/11/01 08:06:03;;;;;;;6.00;0.93;;;18.70;99.90;;;;;;5029361;28;20532;-67
2022/11/01 08:08:29;;;;;;;8.02;1.10;;;18.90;99.90;;;;;;5010113;28;20136;-67
2022/11/01 08:10:54;;;;;;;8.10;1.33;;;19.30;99.90;;;;;;5024957;28;20101;-67
2022/11/01 08:13:22;;;;;;;6.00;1.35;;;19.50;97.90;;;;;;5025392;28;20060;-67
2022/11/01 08:15:50;;;;;;;11.68;1.92;;;19.60;96.60;;;;;;5010234;28;20049;-67
2022/11/01 08:18:17;;;;;;;12.02;1.65;;;19.60;95.70;;;;;;5024202;28;20861;-67
2022/11/01 08:20:43;;;;;;;9.82;1.75;;;19.10;95.10;;;;;;5021897;28;20041;-67
2022/11/01 08:23:10;;;;;;;10.35;2.10;;;18.30;95.10;;;;;;5027341;28;20179;-67
2022/11/01 08:25:35;;;;;;;11.18;1.65;;;17.60;95.70;;;;;;5027736;28;20083;-67
2022/11/01 08:28:04;;;;;;;11.27;2.03;;;16.90;96.40;;;;;;5025581;28;20077;-67
2022/11/01 08:30:30;;;;;;;8.95;1.90;;;16.40;97.00;;;;;;5027631;28;20116;-67
2022/11/01 08:33:00;;;;;;;13.13;2.00;;;16.10;97.40;;;;;;5006562;28;20045;-67
2022/11/01 08:35:26;;;;;;;8.43;2.10;;;15.80;98.20;;;;;;5031652;28;20167;-67
2022/11/01 08:37:52;;;;;;;11.23;2.38;;;15.60;99.00;;;;;;5029698;28;20045;-67
2022/11/01 08:40:18;;;;;;;13.38;2.28;;;15.50;98.90;;;;;;5032171;28;20049;-67
2022/11/01 08:42:44;;;;;;;11.95;2.40;;;15.40;98.40;;;;;;5031642;28;20041;-67
2022/11/01 08:45:10;;;;;;;18.95;3.25;;;15.40;99.20;;;;;;5011737;28;20191;-67
2022/11/01 08:47:37;;;;;;;17.10;2.78;;;15.70;99.80;;;;;;5013853;28;20057;-66
2022/11/01 08:50:03;;;;;;;11.38;2.35;;;16.70;98.70;;;;;;5012683;28;20029;-67
2022/11/01 08:52:29;;;;;;;14.25;2.50;;;17.70;97.20;;;;;;5030701;28;20045;-67
2022/11/01 08:54:55;;;;;;;13.00;2.10;;;18.40;94.90;;;;;;5013551;28;20191;-64
2022/11/01 08:57:20;;;;;;;12.18;2.60;;;19.00;94.00;;;;;;5013515;28;20049;-64
2022/11/01 08:59:46;;;;;;;17.77;2.75;;;19.30;91.70;;;;;;5029620;28;20045;-65
2022/11/01 09:02:12;;;;;;;16.17;2.42;;;19.50;91.00;;;;;;5029670;28;20034;-66
2022/11/01 09:04:38;;;;;;;13.48;2.50;;;19.80;90.30;;;;;;5029138;28;20073;-65
2022/11/01 09:07:03;;;;;;;11.55;2.50;;;20.10;88.10;;;;;;5030931;28;20048;-66
2022/11/01 09:09:29;;;;;;;12.95;2.53;;;20.40;87.90;;;;;;5030566;28;20040;-66
2022/11/01 09:11:55;;;;;;;12.88;2.45;;;20.80;86.30;;;;;;5026874;28;20030;-66
2022/11/01 09:14:23;;;;;;;13.23;2.30;;;21.10;82.50;;;;;;5028419;28;20092;-66
2022/11/01 09:16:50;;;;;;;10.57;2.38;;;21.10;80.20;;;;;;5011357;28;20056;-66
2022/11/01 09:19:15;;;;;;;11.88;2.25;;;21.20;80.10;;;;;;5030299;28;20037;-66
2022/11/01 09:21:45;;;;;;;14.00;2.72;;;21.10;79.30;;;;;;5031538;28;20119;-66
2022/11/01 09:24:12;;;;;;;14.43;2.65;;;20.80;78.50;;;;;;5028500;28;20143;-66
2022/11/01 09:26:38;;;;;;;13.45;2.70;;;20.80;80.30;;;;;;5031200;28;20052;-66
2022/11/01 09:29:04;;;;;;;15.93;2.90;;;21.10;80.20;;;;;;5008988;28;20088;-66
2022/11/01 09:31:30;;;;;;;13.18;2.55;;;21.20;78.90;;;;;;5030072;28;20069;-66
2022/11/01 09:33:56;;;;;;;12.48;2.30;;;21.00;78.90;;;;;;5029314;28;20072;-66
2022/11/01 09:36:24;;;;;;;10.63;2.20;;;21.10;77.70;;;;;;5030421;28;20048;-66
2022/11/01 09:38:49;;;;;;;11.98;2.28;;;21.20;77.80;;;;;;5030116;28;20045;-66
2022/11/01 09:41:37;;;;;;;14.30;2.88;;;21.40;77.20;;;;;;5030445;28;20052;-66
2022/11/01 09:44:05;;;;;;;9.75;2.78;;;21.80;76.10;;;;;;5027460;28;20030;-66
2022/11/01 09:46:46;;;;;;;10.30;2.15;;;22.10;76.80;;;;;;5027561;28;20034;-66
2022/11/01 09:49:20;;;;;;;11.52;2.53;;;22.30;75.50;;;;;;5026501;28;20477;-66
2022/11/01 09:51:46;;;;;;;13.95;2.60;;;22.60;74.30;;;;;;5030279;28;20080;-66
2022/11/01 09:54:12;;;;;;;11.32;2.88;;;22.70;73.80;;;;;;5009910;28;20442;-66
2022/11/01 09:56:45;;;;;;;15.10;2.88;;;22.90;73.60;;;;;;5029119;28;20069;-66
2022/11/01 09:59:29;;;;;;;11.77;2.17;;;23.20;72.60;;;;;;5027017;28;20038;-66
2022/11/01 10:02:18;;;;;;;10.40;2.05;;;23.10;70.30;;;;;;5024653;28;20822;-66
2022/11/01 10:05:02;;;;;;;8.70;2.15;;;22.90;71.40;;;;;;5025723;28;20045;-66
2022/11/01 10:07:41;;;;;;;10.02;2.28;;;22.10;70.80;;;;;;5026948;28;20049;-66
2022/11/01 10:10:30;;;;;;;10.13;2.30;;;20.90;73.40;;;;;;5029065;28;20583;-66
2022/11/01 10:13:31;;;;;;;10.32;2.50;;;20.10;76.10;;;;;;4991998;28;20057;-66
2022/11/01 10:16:15;;;;;;;11.02;3.05;;;20.40;79.40;;;;;;5008006;28;20050;-66
2022/11/01 10:19:09;;;;;;;11.93;2.50;;;21.10;79.20;;;;;;5026247;28;20037;-66
2022/11/01 10:21:43;;;;;;;14.00;2.95;;;21.30;76.00;;;;;;5029847;28;20041;-66
2022/11/01 10:24:42;;;;;;;13.43;2.75;;;20.50;77.00;;;;;;5026475;28;20142;-66
2022/11/01 10:27:28;;;;;;;15.55;3.10;;;19.80;78.80;;;;;;5025144;28;20069;-66
2022/11/01 10:30:06;;;;;;;12.45;2.53;;;19.30;81.90;;;;;;5009141;28;20053;-66
2022/11/01 10:32:56;;;;;;;14.10;2.38;;;19.00;83.90;;;;;;5029877;28;20037;-66
2022/11/01 10:35:34;;;;;;;10.75;2.67;;;18.80;84.50;;;;;;5027856;28;20050;-66
2022/11/01 10:38:26;;;;;;;13.43;2.42;;;18.60;85.70;;;;;;5029439;28;20044;-66
2022/11/01 10:41:05;;;;;;;13.35;2.53;;;18.80;86.10;;;;;;5028798;28;20048;-65
2022/11/01 10:43:34;;;;;;;11.43;2.38;;;18.70;86.90;;;;;;5025341;28;20048;-66
2022/11/01 10:46:03;;;;;;;13.05;2.58;;;18.40;88.80;;;;;;5008130;28;20048;-66
2022/11/01 10:48:33;;;;;;;12.60;2.38;;;18.20;89.90;;;;;;5024583;28;20044;-66
2022/11/01 10:51:02;;;;;;;14.18;2.60;;;18.30;90.00;;;;;;5029700;28;20106;-66
2022/11/01 10:53:35;;;;;;;10.23;2.13;;;18.10;89.60;;;;;;5029601;28;20038;-65
2022/11/01 10:56:07;;;;;;;15.35;2.20;;;17.90;90.00;;;;;;5027990;28;20064;-66
2022/11/01 10:58:37;;;;;;;12.85;2.38;;;17.60;90.20;;;;;;5027526;28;20033;-66
2022/11/01 11:01:07;;;;;;;13.82;2.97;;;17.30;90.90;;;;;;5028854;28;20389;-66
2022/11/01 11:03:33;;;;;;;16.98;3.05;;;17.00;91.40;;;;;;5028664;28;20041;-65
2022/11/01 11:06:05;;;;;;;13.68;2.53;;;16.80;92.20;;;;;;5029105;28;20034;-65
2022/11/01 11:08:33;;;;;;;13.00;2.58;;;16.70;93.20;;;;;;5028342;28;20041;-65
2022/11/01 11:11:03;;;;;;;13.77;2.45;;;16.70;93.80;;;;;;5026939;28;20037;-66
2022/11/01 11:13:30;;;;;;;12.40;2.28;;;16.70;93.90;;;;;;5007231;28;20041;-66
2022/11/01 11:16:03;;;;;;;14.93;2.50;;;16.80;94.10;;;;;;5008550;28;20037;-66
2022/11/01 11:18:34;;;;;;;18.13;3.03;;;16.70;94.30;;;;;;5008661;28;20048;-66
2022/11/01 11:21:10;;;;;;;14.93;2.55;;;16.70;95.10;;;;;;5006449;28;20393;-66
2022/11/01 11:23:45;;;;;;;12.80;2.30;;;16.70;95.60;;;;;;5004481;28;20220;-66
2022/11/01 11:26:15;;;;;;;10.77;2.40;;;16.80;95.50;;;;;;5002458;28;20050;-65
2022/11/01 11:28:45;;;;;;;11.52;2.20;;;16.80;95.60;;;;;;5003955;28;20141;-65
2022/11/01 11:31:29;;;;;;;11.90;2.00;;;16.80;96.00;;;;;;5002628;28;20484;-66
2022/11/01 11:34:15;;;;;;;11.27;1.90;;;16.90;96.60;;;;;;5004644;28;20401;-66
2022/11/01 11:36:45;;;;;;;15.05;2.58;;;16.90;97.00;;;;;;5005010;28;20107;-66
2022/11/01 11:39:36;;;;;;;13.38;2.25;;;16.90;96.90;;;;;;5006853;28;20429;-66
2022/11/01 11:42:20;;;;;;;12.98;3.15;;;16.90;97.10;;;;;;5004392;28;20068;-66
2022/11/01 11:44:49;;;;;;;12.87;1.83;;;16.80;96.60;;;;;;5002332;28;20101;-66
2022/11/01 11:47:24;;;;;;;8.68;1.90;;;16.80;97.30;;;;;;5007341;28;20050;-65
2022/11/01 11:49:55;;;;;;;11.77;2.22;;;16.70;97.30;;;;;;5005624;28;20034;-66
2022/11/01 11:52:41;;;;;;;8.23;1.80;;;16.60;97.70;;;;;;5006461;28;20509;-65
2022/11/01 11:55:40;;;;;;;14.50;2.72;;;16.60;97.90;;;;;;5004467;28;20049;-66
2022/11/01 11:58:21;;;;;;;12.10;2.00;;;16.60;97.70;;;;;;5005886;28;20049;-66
2022/11/01 12:00:51;;;;;;;12.85;1.58;;;16.50;98.20;;;;;;5008149;28;20038;-66
2022/11/01 12:03:17;;;;;;;12.68;2.17;;;16.50;97.70;;;;;;5007848;28;20042;-66
2022/11/01 12:06:04;;;;;;;12.70;1.70;;;16.50;97.50;;;;;;5004884;28;20039;-66
2022/11/01 12:08:54;;;;;;;9.50;2.22;;;16.50;97.80;;;;;;5008231;28;20038;-67
2022/11/01 12:11:22;;;;;;;7.63;1.63;;;16.50;98.00;;;;;;4999663;28;20049;-67
2022/11/01 12:14:01;;;;;;;11.30;2.03;;;16.50;97.90;;;;;;5010573;28;20118;-67
2022/11/01 12:16:27;;;;;;;11.77;2.10;;;16.50;98.00;;;;;;5011282;28;20120;-66
2022/11/01 12:19:03;;;;;;;10.43;2.17;;;16.50;98.30;;;;;;5012576;28;20524;-66
2022/11/01 12:21:32;;;;;;;11.68;1.83;;;16.50;98.50;;;;;;5011313;28;20516;-66
2022/11/01 12:24:18;;;;;;;9.13;1.40;;;16.50;98.40;;;;;;5011595;28;20030;-66
2022/11/01 12:26:46;;;;;;;11.85;1.80;;;16.50;98.60;;;;;;5009780;28;20096;-66
2022/11/01 12:29:35;;;;;;;11.98;1.63;;;16.40;98.70;;;;;;5012390;28;20104;-66
2022/11/01 12:32:17;;;;;;;11.00;1.85;;;16.40;98.70;;;;;;5010640;28;20116;-66
2022/11/01 12:34:46;;;;;;;8.02;1.42;;;16.40;99.00;;;;;;5008065;28;20128;-66
2022/11/01 12:37:33;;;;;;;11.75;2.30;;;16.40;98.90;;;;;;5011081;28;20054;-66
2022/11/01 12:40:04;;;;;;;7.95;1.27;;;16.40;99.00;;;;;;5011225;28;20041;-66
2022/11/01 12:42:44;;;;;;;14.85;2.10;;;16.40;99.10;;;;;;5010603;28;20038;-66
2022/11/01 12:45:25;;;;;;;9.75;1.60;;;16.30;99.50;;;;;;5010489;28;20049;-67
2022/11/01 12:48:06;;;;;;;11.18;1.55;;;16.40;99.50;;;;;;5011021;28;20046;-66
2022/11/01 12:50:46;;;;;;;9.05;1.88;;;16.40;99.70;;;;;;5005948;28;20054;-66
2022/11/01 12:53:14;;;;;;;8.00;1.35;;;16.50;99.60;;;;;;5002556;28;20045;-66
2022/11/01 12:55:41;;;;;;;7.85;1.63;;;16.50;99.60;;;;;;5012717;28;20053;-66
2022/11/01 12:58:17;;;;;;;14.85;2.00;;;16.50;99.70;;;;;;5010784;28;20144;-66
2022/11/01 13:00:48;;;;;;;10.48;1.83;;;16.60;99.90;;;;;;5011708;28;20052;-66
2022/11/01 13:03:28;;;;;;;8.35;1.38;;;16.70;99.80;;;;;;5012045;28;20038;-66